sensor_id;sensor_type;location;lat;lon;timestamp;P1;durP1;ratioP1;P2;durP2;ratioP2
19691;SDS011;42748;50.016;19.890;2022-12-10T00:01:35;36.20;;;18.00;;
19691;SDS011;42748;50.016;19.890;2022-12-10T00:04:02;37.30;;;18.43;;
19691;SDS011;42748;50.016;19.890;2022-12-10T00:06:30;35.17;;;18.80;;
19691;SDS011;42748;50.016;19.890;2022-12-10T00:08:59;37.53;;;17.80;;
19691;SDS011;42748;50.016;19.890;2022-12-10T00:11:27;36.67;;;18.47;;
19691;SDS011;42748;50.016;19.890;2022-12-10T00:13:55;35.67;;;17.33;;
19691;SDS011;42748;50.016;19.890;2022-12-10T00:16:24;36.50;;;17.20;;
19691;SDS011;42748;50.016;19.890;2022-12-10T00:18:54;34.50;;;16.70;;
19691;SDS011;42748;50.016;19.890;2022-12-10T00:21:25;34.27;;;16.43;;
19691;SDS011;42748;50.016;19.890;2022-12-10T00:23:55;34.60;;;16.83;;
19691;SDS011;42748;50.016;19.890;2022-12-10T00:26:23;30.70;;;15.77;;
19691;SDS011;42748;50.016;19.890;2022-12-10T00:28:54;31.13;;;15.80;;
19691;SDS011;42748;50.016;19.890;2022-12-10T00:31:23;30.03;;;15.67;;
19691;SDS011;42748;50.016;19.890;2022-12-10T00:33:53;33.47;;;15.70;;
19691;SDS011;42748;50.016;19.890;2022-12-10T00:36:32;29.70;;;15.10;;
19691;SDS011;42748;50.016;19.890;2022-12-10T00:39:26;30.23;;;15.03;;
19691;SDS011;42748;50.016;19.890;2022-12-10T00:41:53;28.10;;;14.80;;
19691;SDS011;42748;50.016;19.890;2022-12-10T00:44:20;28.97;;;14.37;;
19691;SDS011;42748;50.016;19.890;2022-12-10T00:46:47;28.73;;;14.80;;
19691;SDS011;42748;50.016;19.890;2022-12-10T00:49:14;30.17;;;14.10;;
19691;SDS011;42748;50.016;19.890;2022-12-10T00:51:41;27.37;;;14.30;;
19691;SDS011;42748;50.016;19.890;2022-12-10T00:54:10;29.57;;;15.13;;
19691;SDS011;42748;50.016;19.890;2022-12-10T00:56:37;25.93;;;14.57;;
19691;SDS011;42748;50.016;19.890;2022-12-10T00:59:04;25.07;;;14.30;;
19691;SDS011;42748;50.016;19.890;2022-12-10T01:01:32;25.77;;;13.47;;
19691;SDS011;42748;50.016;19.890;2022-12-10T01:04:03;31.83;;;14.67;;
19691;SDS011;42748;50.016;19.890;2022-12-10T01:06:34;27.00;;;13.63;;
19691;SDS011;42748;50.016;19.890;2022-12-10T01:09:04;26.07;;;14.47;;
19691;SDS011;42748;50.016;19.890;2022-12-10T01:11:35;27.37;;;14.43;;
19691;SDS011;42748;50.016;19.890;2022-12-10T01:14:04;25.97;;;14.43;;
19691;SDS011;42748;50.016;19.890;2022-12-10T01:16:36;30.90;;;15.73;;
19691;SDS011;42748;50.016;19.890;2022-12-10T01:19:03;28.50;;;14.83;;
19691;SDS011;42748;50.016;19.890;2022-12-10T01:21:33;29.73;;;14.80;;
19691;SDS011;42748;50.016;19.890;2022-12-10T01:24:00;26.83;;;15.07;;
19691;SDS011;42748;50.016;19.890;2022-12-10T01:26:29;27.10;;;14.83;;
19691;SDS011;42748;50.016;19.890;2022-12-10T01:29:00;28.43;;;14.37;;
19691;SDS011;42748;50.016;19.890;2022-12-10T01:31:30;27.80;;;15.20;;
19691;SDS011;42748;50.016;19.890;2022-12-10T01:34:05;26.07;;;14.07;;
19691;SDS011;42748;50.016;19.890;2022-12-10T01:36:34;27.83;;;15.20;;
19691;SDS011;42748;50.016;19.890;2022-12-10T01:39:04;27.20;;;14.73;;
19691;SDS011;42748;50.016;19.890;2022-12-10T01:41:40;26.97;;;14.63;;
19691;SDS011;42748;50.016;19.890;2022-12-10T01:46:40;28.47;;;15.43;;
19691;SDS011;42748;50.016;19.890;2022-12-10T01:49:15;27.13;;;14.80;;
19691;SDS011;42748;50.016;19.890;2022-12-10T01:51:45;25.63;;;14.27;;
19691;SDS011;42748;50.016;19.890;2022-12-10T01:54:18;28.03;;;14.40;;
19691;SDS011;42748;50.016;19.890;2022-12-10T01:59:36;30.73;;;15.17;;
19691;SDS011;42748;50.016;19.890;2022-12-10T02:02:08;27.53;;;14.17;;
19691;SDS011;42748;50.016;19.890;2022-12-10T02:13:39;27.70;;;14.63;;
19691;SDS011;42748;50.016;19.890;2022-12-10T02:16:15;25.00;;;14.40;;
19691;SDS011;42748;50.016;19.890;2022-12-10T02:18:51;26.90;;;14.80;;
19691;SDS011;42748;50.016;19.890;2022-12-10T02:21:32;26.70;;;14.53;;
19691;SDS011;42748;50.016;19.890;2022-12-10T02:24:05;30.83;;;15.23;;
19691;SDS011;42748;50.016;19.890;2022-12-10T02:29:29;32.20;;;16.90;;
19691;SDS011;42748;50.016;19.890;2022-12-10T02:32:06;34.07;;;16.37;;
19691;SDS011;42748;50.016;19.890;2022-12-10T02:34:39;30.60;;;16.47;;
19691;SDS011;42748;50.016;19.890;2022-12-10T02:37:15;31.57;;;16.93;;
19691;SDS011;42748;50.016;19.890;2022-12-10T02:39:52;29.47;;;16.23;;
19691;SDS011;42748;50.016;19.890;2022-12-10T02:42:25;32.30;;;17.43;;
19691;SDS011;42748;50.016;19.890;2022-12-10T02:44:56;31.87;;;16.97;;
19691;SDS011;42748;50.016;19.890;2022-12-10T02:47:24;30.17;;;16.03;;
19691;SDS011;42748;50.016;19.890;2022-12-10T02:49:53;33.93;;;16.70;;
19691;SDS011;42748;50.016;19.890;2022-12-10T02:52:25;31.83;;;16.03;;
19691;SDS011;42748;50.016;19.890;2022-12-10T02:54:53;29.77;;;15.97;;
19691;SDS011;42748;50.016;19.890;2022-12-10T03:06:21;25.53;;;14.53;;
19691;SDS011;42748;50.016;19.890;2022-12-10T03:09:12;26.83;;;15.03;;
19691;SDS011;42748;50.016;19.890;2022-12-10T03:11:54;28.03;;;15.33;;
19691;SDS011;42748;50.016;19.890;2022-12-10T03:14:29;29.83;;;15.30;;
19691;SDS011;42748;50.016;19.890;2022-12-10T03:16:58;29.77;;;15.93;;
19691;SDS011;42748;50.016;19.890;2022-12-10T03:19:36;31.53;;;16.10;;
19691;SDS011;42748;50.016;19.890;2022-12-10T03:22:06;29.83;;;16.47;;
19691;SDS011;42748;50.016;19.890;2022-12-10T03:24:34;31.13;;;17.17;;
19691;SDS011;42748;50.016;19.890;2022-12-10T03:27:03;34.57;;;17.57;;
19691;SDS011;42748;50.016;19.890;2022-12-10T03:29:43;32.03;;;18.23;;
19691;SDS011;42748;50.016;19.890;2022-12-10T03:32:13;34.13;;;18.37;;
19691;SDS011;42748;50.016;19.890;2022-12-10T03:34:42;34.93;;;18.07;;
19691;SDS011;42748;50.016;19.890;2022-12-10T03:37:10;32.90;;;17.60;;
19691;SDS011;42748;50.016;19.890;2022-12-10T03:39:38;31.93;;;16.93;;
19691;SDS011;42748;50.016;19.890;2022-12-10T03:42:08;33.80;;;16.80;;
19691;SDS011;42748;50.016;19.890;2022-12-10T03:44:36;32.97;;;16.90;;
19691;SDS011;42748;50.016;19.890;2022-12-10T03:47:05;32.20;;;17.23;;
19691;SDS011;42748;50.016;19.890;2022-12-10T03:49:37;31.37;;;16.93;;
19691;SDS011;42748;50.016;19.890;2022-12-10T03:52:04;33.63;;;17.50;;
19691;SDS011;42748;50.016;19.890;2022-12-10T03:54:31;35.60;;;18.73;;
19691;SDS011;42748;50.016;19.890;2022-12-10T03:56:58;32.77;;;17.30;;
19691;SDS011;42748;50.016;19.890;2022-12-10T03:59:25;35.60;;;17.97;;
19691;SDS011;42748;50.016;19.890;2022-12-10T04:01:52;35.20;;;17.77;;
19691;SDS011;42748;50.016;19.890;2022-12-10T04:04:20;33.87;;;17.73;;
19691;SDS011;42748;50.016;19.890;2022-12-10T04:06:47;34.80;;;17.93;;
19691;SDS011;42748;50.016;19.890;2022-12-10T04:09:15;33.53;;;16.70;;
19691;SDS011;42748;50.016;19.890;2022-12-10T04:11:42;32.93;;;17.60;;
19691;SDS011;42748;50.016;19.890;2022-12-10T04:14:10;34.63;;;17.77;;
19691;SDS011;42748;50.016;19.890;2022-12-10T04:16:57;36.37;;;17.43;;
19691;SDS011;42748;50.016;19.890;2022-12-10T04:19:25;33.57;;;17.57;;
19691;SDS011;42748;50.016;19.890;2022-12-10T04:21:52;35.40;;;17.97;;
19691;SDS011;42748;50.016;19.890;2022-12-10T04:24:37;35.33;;;17.67;;
19691;SDS011;42748;50.016;19.890;2022-12-10T04:27:32;36.27;;;17.57;;
19691;SDS011;42748;50.016;19.890;2022-12-10T04:30:02;38.90;;;18.57;;
19691;SDS011;42748;50.016;19.890;2022-12-10T04:32:32;38.17;;;19.00;;
19691;SDS011;42748;50.016;19.890;2022-12-10T04:34:59;38.50;;;19.17;;
19691;SDS011;42748;50.016;19.890;2022-12-10T04:37:27;40.40;;;19.13;;
19691;SDS011;42748;50.016;19.890;2022-12-10T04:39:54;42.03;;;19.77;;
19691;SDS011;42748;50.016;19.890;2022-12-10T04:42:21;39.90;;;18.90;;
19691;SDS011;42748;50.016;19.890;2022-12-10T04:44:49;39.83;;;19.23;;
19691;SDS011;42748;50.016;19.890;2022-12-10T04:47:16;38.00;;;19.17;;
19691;SDS011;42748;50.016;19.890;2022-12-10T04:49:43;40.33;;;19.40;;
19691;SDS011;42748;50.016;19.890;2022-12-10T04:52:11;43.23;;;20.27;;
19691;SDS011;42748;50.016;19.890;2022-12-10T04:54:40;40.40;;;19.90;;
19691;SDS011;42748;50.016;19.890;2022-12-10T04:57:07;38.80;;;18.83;;
19691;SDS011;42748;50.016;19.890;2022-12-10T04:59:35;40.90;;;20.07;;
19691;SDS011;42748;50.016;19.890;2022-12-10T05:02:03;42.90;;;21.20;;
19691;SDS011;42748;50.016;19.890;2022-12-10T05:04:30;48.53;;;21.50;;
19691;SDS011;42748;50.016;19.890;2022-12-10T05:06:58;48.10;;;21.83;;
19691;SDS011;42748;50.016;19.890;2022-12-10T05:09:25;51.50;;;23.40;;
19691;SDS011;42748;50.016;19.890;2022-12-10T05:11:52;54.93;;;23.43;;
19691;SDS011;42748;50.016;19.890;2022-12-10T05:14:19;53.67;;;23.63;;
19691;SDS011;42748;50.016;19.890;2022-12-10T05:16:48;53.13;;;23.93;;
19691;SDS011;42748;50.016;19.890;2022-12-10T05:19:17;54.33;;;23.20;;
19691;SDS011;42748;50.016;19.890;2022-12-10T05:21:46;58.03;;;24.93;;
19691;SDS011;42748;50.016;19.890;2022-12-10T05:24:32;56.87;;;24.73;;
19691;SDS011;42748;50.016;19.890;2022-12-10T05:26:59;56.77;;;25.73;;
19691;SDS011;42748;50.016;19.890;2022-12-10T05:29:26;59.73;;;25.63;;
19691;SDS011;42748;50.016;19.890;2022-12-10T05:31:54;61.13;;;26.03;;
19691;SDS011;42748;50.016;19.890;2022-12-10T05:34:21;60.87;;;26.70;;
19691;SDS011;42748;50.016;19.890;2022-12-10T05:36:52;62.93;;;26.53;;
19691;SDS011;42748;50.016;19.890;2022-12-10T05:39:19;60.37;;;26.07;;
19691;SDS011;42748;50.016;19.890;2022-12-10T05:41:46;60.87;;;25.40;;
19691;SDS011;42748;50.016;19.890;2022-12-10T05:44:13;62.37;;;26.70;;
19691;SDS011;42748;50.016;19.890;2022-12-10T05:46:40;79.47;;;30.83;;
19691;SDS011;42748;50.016;19.890;2022-12-10T05:49:07;81.87;;;31.30;;
19691;SDS011;42748;50.016;19.890;2022-12-10T05:51:35;87.27;;;33.17;;
19691;SDS011;42748;50.016;19.890;2022-12-10T05:54:04;84.23;;;33.27;;
19691;SDS011;42748;50.016;19.890;2022-12-10T05:56:34;96.10;;;35.27;;
19691;SDS011;42748;50.016;19.890;2022-12-10T05:59:02;83.77;;;33.87;;
19691;SDS011;42748;50.016;19.890;2022-12-10T06:01:31;79.10;;;32.90;;
19691;SDS011;42748;50.016;19.890;2022-12-10T06:04:01;83.87;;;33.70;;
19691;SDS011;42748;50.016;19.890;2022-12-10T06:06:31;80.30;;;33.00;;
19691;SDS011;42748;50.016;19.890;2022-12-10T06:09:00;84.37;;;33.27;;
19691;SDS011;42748;50.016;19.890;2022-12-10T06:11:28;76.90;;;32.07;;
19691;SDS011;42748;50.016;19.890;2022-12-10T06:13:56;81.77;;;31.77;;
19691;SDS011;42748;50.016;19.890;2022-12-10T06:16:24;78.50;;;31.87;;
19691;SDS011;42748;50.016;19.890;2022-12-10T06:18:52;81.63;;;32.17;;
19691;SDS011;42748;50.016;19.890;2022-12-10T06:21:20;78.13;;;31.60;;
19691;SDS011;42748;50.016;19.890;2022-12-10T06:23:47;79.70;;;32.03;;
19691;SDS011;42748;50.016;19.890;2022-12-10T06:26:19;72.93;;;30.47;;
19691;SDS011;42748;50.016;19.890;2022-12-10T06:28:48;77.53;;;31.63;;
19691;SDS011;42748;50.016;19.890;2022-12-10T06:31:15;75.80;;;30.07;;
19691;SDS011;42748;50.016;19.890;2022-12-10T06:33:43;74.97;;;29.90;;
19691;SDS011;42748;50.016;19.890;2022-12-10T06:36:11;70.10;;;28.03;;
19691;SDS011;42748;50.016;19.890;2022-12-10T06:38:40;81.50;;;32.47;;
19691;SDS011;42748;50.016;19.890;2022-12-10T06:41:09;63.50;;;26.03;;
19691;SDS011;42748;50.016;19.890;2022-12-10T06:43:37;59.60;;;25.53;;
19691;SDS011;42748;50.016;19.890;2022-12-10T06:46:12;62.00;;;25.37;;
19691;SDS011;42748;50.016;19.890;2022-12-10T06:48:41;66.70;;;25.87;;
19691;SDS011;42748;50.016;19.890;2022-12-10T06:51:08;65.07;;;26.57;;
19691;SDS011;42748;50.016;19.890;2022-12-10T06:53:37;69.63;;;27.13;;
19691;SDS011;42748;50.016;19.890;2022-12-10T06:56:05;69.43;;;27.23;;
19691;SDS011;42748;50.016;19.890;2022-12-10T06:58:33;73.50;;;28.90;;
19691;SDS011;42748;50.016;19.890;2022-12-10T07:01:23;68.10;;;27.90;;
19691;SDS011;42748;50.016;19.890;2022-12-10T07:03:53;81.93;;;30.03;;
19691;SDS011;42748;50.016;19.890;2022-12-10T07:06:22;95.80;;;33.90;;
19691;SDS011;42748;50.016;19.890;2022-12-10T07:08:50;99.67;;;35.50;;
19691;SDS011;42748;50.016;19.890;2022-12-10T07:11:19;113.57;;;38.67;;
19691;SDS011;42748;50.016;19.890;2022-12-10T07:13:47;126.17;;;40.47;;
19691;SDS011;42748;50.016;19.890;2022-12-10T07:16:16;136.87;;;41.87;;
19691;SDS011;42748;50.016;19.890;2022-12-10T07:18:47;127.97;;;40.30;;
19691;SDS011;42748;50.016;19.890;2022-12-10T07:21:22;134.03;;;41.83;;
19691;SDS011;42748;50.016;19.890;2022-12-10T07:23:59;126.37;;;40.00;;
19691;SDS011;42748;50.016;19.890;2022-12-10T07:26:33;125.00;;;40.60;;
19691;SDS011;42748;50.016;19.890;2022-12-10T07:29:03;136.27;;;42.53;;
19691;SDS011;42748;50.016;19.890;2022-12-10T07:31:31;127.50;;;42.03;;
19691;SDS011;42748;50.016;19.890;2022-12-10T07:33:59;122.87;;;41.23;;
19691;SDS011;42748;50.016;19.890;2022-12-10T07:36:27;104.43;;;37.33;;
19691;SDS011;42748;50.016;19.890;2022-12-10T07:38:55;109.47;;;38.60;;
19691;SDS011;42748;50.016;19.890;2022-12-10T07:41:22;105.37;;;38.50;;
19691;SDS011;42748;50.016;19.890;2022-12-10T07:43:50;100.83;;;37.33;;
19691;SDS011;42748;50.016;19.890;2022-12-10T07:48:47;90.60;;;34.77;;
19691;SDS011;42748;50.016;19.890;2022-12-10T07:51:15;89.63;;;34.73;;
19691;SDS011;42748;50.016;19.890;2022-12-10T07:53:44;89.50;;;33.47;;
19691;SDS011;42748;50.016;19.890;2022-12-10T07:56:11;97.80;;;35.30;;
19691;SDS011;42748;50.016;19.890;2022-12-10T07:58:42;90.97;;;34.83;;
19691;SDS011;42748;50.016;19.890;2022-12-10T08:01:12;89.70;;;36.17;;
19691;SDS011;42748;50.016;19.890;2022-12-10T08:03:41;87.37;;;33.93;;
19691;SDS011;42748;50.016;19.890;2022-12-10T08:06:10;87.23;;;34.53;;
19691;SDS011;42748;50.016;19.890;2022-12-10T08:08:40;88.23;;;35.37;;
19691;SDS011;42748;50.016;19.890;2022-12-10T08:11:07;81.13;;;33.10;;
19691;SDS011;42748;50.016;19.890;2022-12-10T08:13:35;83.37;;;32.07;;
19691;SDS011;42748;50.016;19.890;2022-12-10T08:16:04;81.67;;;32.10;;
19691;SDS011;42748;50.016;19.890;2022-12-10T08:18:37;71.23;;;30.60;;
19691;SDS011;42748;50.016;19.890;2022-12-10T08:21:08;78.80;;;31.60;;
19691;SDS011;42748;50.016;19.890;2022-12-10T08:23:42;85.43;;;31.90;;
19691;SDS011;42748;50.016;19.890;2022-12-10T08:26:11;77.53;;;32.40;;
19691;SDS011;42748;50.016;19.890;2022-12-10T08:28:42;80.40;;;31.17;;
19691;SDS011;42748;50.016;19.890;2022-12-10T08:31:09;80.30;;;31.53;;
19691;SDS011;42748;50.016;19.890;2022-12-10T08:33:38;69.33;;;29.77;;
19691;SDS011;42748;50.016;19.890;2022-12-10T08:36:07;68.63;;;29.47;;
19691;SDS011;42748;50.016;19.890;2022-12-10T08:38:35;68.97;;;29.67;;
19691;SDS011;42748;50.016;19.890;2022-12-10T08:41:09;73.53;;;31.87;;
19691;SDS011;42748;50.016;19.890;2022-12-10T08:43:37;71.77;;;30.70;;
19691;SDS011;42748;50.016;19.890;2022-12-10T08:46:04;72.10;;;31.53;;
19691;SDS011;42748;50.016;19.890;2022-12-10T08:48:32;75.33;;;30.27;;
19691;SDS011;42748;50.016;19.890;2022-12-10T08:51:01;69.97;;;30.60;;
19691;SDS011;42748;50.016;19.890;2022-12-10T08:53:29;70.00;;;29.40;;
19691;SDS011;42748;50.016;19.890;2022-12-10T08:55:57;64.13;;;29.00;;
19691;SDS011;42748;50.016;19.890;2022-12-10T08:58:25;63.20;;;28.40;;
19691;SDS011;42748;50.016;19.890;2022-12-10T09:00:52;62.60;;;27.83;;
19691;SDS011;42748;50.016;19.890;2022-12-10T09:03:19;72.20;;;29.53;;
19691;SDS011;42748;50.016;19.890;2022-12-10T09:05:46;62.67;;;28.97;;
19691;SDS011;42748;50.016;19.890;2022-12-10T09:08:13;70.27;;;30.03;;
19691;SDS011;42748;50.016;19.890;2022-12-10T09:10:41;67.53;;;30.40;;
19691;SDS011;42748;50.016;19.890;2022-12-10T09:13:08;63.10;;;27.93;;
19691;SDS011;42748;50.016;19.890;2022-12-10T09:15:35;69.37;;;29.93;;
19691;SDS011;42748;50.016;19.890;2022-12-10T09:18:03;64.60;;;28.63;;
19691;SDS011;42748;50.016;19.890;2022-12-10T09:20:30;65.77;;;29.53;;
19691;SDS011;42748;50.016;19.890;2022-12-10T09:22:57;63.33;;;28.20;;
19691;SDS011;42748;50.016;19.890;2022-12-10T09:25:25;61.17;;;27.17;;
19691;SDS011;42748;50.016;19.890;2022-12-10T09:27:52;67.50;;;29.07;;
19691;SDS011;42748;50.016;19.890;2022-12-10T09:30:19;62.13;;;28.47;;
19691;SDS011;42748;50.016;19.890;2022-12-10T09:32:46;62.10;;;28.90;;
19691;SDS011;42748;50.016;19.890;2022-12-10T09:35:13;65.23;;;28.70;;
19691;SDS011;42748;50.016;19.890;2022-12-10T09:37:40;61.00;;;28.37;;
19691;SDS011;42748;50.016;19.890;2022-12-10T09:40:08;61.50;;;28.33;;
19691;SDS011;42748;50.016;19.890;2022-12-10T09:42:51;61.17;;;27.50;;
19691;SDS011;42748;50.016;19.890;2022-12-10T09:45:24;55.97;;;26.30;;
19691;SDS011;42748;50.016;19.890;2022-12-10T09:48:35;59.80;;;27.23;;
19691;SDS011;42748;50.016;19.890;2022-12-10T09:51:12;57.17;;;25.70;;
19691;SDS011;42748;50.016;19.890;2022-12-10T09:53:49;55.83;;;25.17;;
19691;SDS011;42748;50.016;19.890;2022-12-10T09:56:34;59.83;;;25.53;;
19691;SDS011;42748;50.016;19.890;2022-12-10T09:59:11;53.30;;;25.20;;
19691;SDS011;42748;50.016;19.890;2022-12-10T10:01:45;58.97;;;26.23;;
19691;SDS011;42748;50.016;19.890;2022-12-10T10:04:15;54.97;;;25.53;;
19691;SDS011;42748;50.016;19.890;2022-12-10T10:06:43;54.37;;;25.07;;
19691;SDS011;42748;50.016;19.890;2022-12-10T10:09:10;54.50;;;24.37;;
19691;SDS011;42748;50.016;19.890;2022-12-10T10:11:40;52.67;;;24.07;;
19691;SDS011;42748;50.016;19.890;2022-12-10T10:14:13;54.47;;;24.83;;
19691;SDS011;42748;50.016;19.890;2022-12-10T10:16:48;52.73;;;24.53;;
19691;SDS011;42748;50.016;19.890;2022-12-10T10:19:33;53.47;;;24.80;;
19691;SDS011;42748;50.016;19.890;2022-12-10T10:22:03;52.90;;;24.07;;
19691;SDS011;42748;50.016;19.890;2022-12-10T10:24:34;53.43;;;24.23;;
19691;SDS011;42748;50.016;19.890;2022-12-10T10:27:19;51.97;;;24.40;;
19691;SDS011;42748;50.016;19.890;2022-12-10T10:29:49;51.93;;;23.13;;
19691;SDS011;42748;50.016;19.890;2022-12-10T10:37:52;51.60;;;23.90;;
19691;SDS011;42748;50.016;19.890;2022-12-10T10:43:15;51.90;;;23.43;;
19691;SDS011;42748;50.016;19.890;2022-12-10T10:46:06;48.53;;;23.03;;
19691;SDS011;42748;50.016;19.890;2022-12-10T10:51:52;48.83;;;23.10;;
19691;SDS011;42748;50.016;19.890;2022-12-10T10:57:36;50.37;;;22.63;;
19691;SDS011;42748;50.016;19.890;2022-12-10T11:00:21;48.00;;;22.67;;
19691;SDS011;42748;50.016;19.890;2022-12-10T11:02:49;52.00;;;23.73;;
19691;SDS011;42748;50.016;19.890;2022-12-10T11:05:17;52.07;;;24.27;;
19691;SDS011;42748;50.016;19.890;2022-12-10T11:08:02;53.03;;;23.43;;
19691;SDS011;42748;50.016;19.890;2022-12-10T11:10:31;50.57;;;23.87;;
19691;SDS011;42748;50.016;19.890;2022-12-10T11:13:06;47.63;;;23.13;;
19691;SDS011;42748;50.016;19.890;2022-12-10T11:15:45;48.07;;;23.10;;
19691;SDS011;42748;50.016;19.890;2022-12-10T11:18:32;49.00;;;22.27;;
19691;SDS011;42748;50.016;19.890;2022-12-10T11:23:37;47.50;;;23.03;;
19691;SDS011;42748;50.016;19.890;2022-12-10T11:29:19;42.77;;;21.00;;
19691;SDS011;42748;50.016;19.890;2022-12-10T11:38:13;48.33;;;21.67;;
19691;SDS011;42748;50.016;19.890;2022-12-10T11:40:49;47.57;;;22.50;;
19691;SDS011;42748;50.016;19.890;2022-12-10T11:45:55;45.57;;;22.40;;
19691;SDS011;42748;50.016;19.890;2022-12-10T11:59:58;47.83;;;22.53;;
19691;SDS011;42748;50.016;19.890;2022-12-10T12:11:03;47.23;;;21.20;;
19691;SDS011;42748;50.016;19.890;2022-12-10T12:16:23;46.63;;;21.60;;
19691;SDS011;42748;50.016;19.890;2022-12-10T12:19:14;46.80;;;21.63;;
19691;SDS011;42748;50.016;19.890;2022-12-10T12:21:44;47.53;;;22.33;;
19691;SDS011;42748;50.016;19.890;2022-12-10T12:27:27;49.80;;;21.73;;
19691;SDS011;42748;50.016;19.890;2022-12-10T12:30:03;47.53;;;20.93;;
19691;SDS011;42748;50.016;19.890;2022-12-10T12:35:34;48.00;;;22.30;;
19691;SDS011;42748;50.016;19.890;2022-12-10T12:40:52;49.07;;;22.00;;
19691;SDS011;42748;50.016;19.890;2022-12-10T12:43:31;46.30;;;22.50;;
19691;SDS011;42748;50.016;19.890;2022-12-10T12:46:05;48.43;;;22.07;;
19691;SDS011;42748;50.016;19.890;2022-12-10T12:48:45;49.03;;;22.70;;
19691;SDS011;42748;50.016;19.890;2022-12-10T12:54:20;52.20;;;23.17;;
19691;SDS011;42748;50.016;19.890;2022-12-10T12:57:07;54.37;;;24.07;;
19691;SDS011;42748;50.016;19.890;2022-12-10T12:59:53;56.77;;;24.63;;
19691;SDS011;42748;50.016;19.890;2022-12-10T13:05:27;56.10;;;24.80;;
19691;SDS011;42748;50.016;19.890;2022-12-10T13:13:40;57.50;;;24.30;;
19691;SDS011;42748;50.016;19.890;2022-12-10T13:27:10;69.63;;;27.43;;
19691;SDS011;42748;50.016;19.890;2022-12-10T13:32:23;72.10;;;28.40;;
19691;SDS011;42748;50.016;19.890;2022-12-10T13:42:55;71.20;;;28.17;;
19691;SDS011;42748;50.016;19.890;2022-12-10T13:46:20;72.73;;;27.83;;
19691;SDS011;42748;50.016;19.890;2022-12-10T13:48:47;66.03;;;27.23;;
19691;SDS011;42748;50.016;19.890;2022-12-10T13:56:38;67.20;;;27.70;;
19691;SDS011;42748;50.016;19.890;2022-12-10T14:02:21;73.20;;;27.53;;
19691;SDS011;42748;50.016;19.890;2022-12-10T14:05:08;72.60;;;27.03;;
19691;SDS011;42748;50.016;19.890;2022-12-10T14:07:49;75.67;;;28.77;;
19691;SDS011;42748;50.016;19.890;2022-12-10T14:10:18;75.33;;;29.60;;
19691;SDS011;42748;50.016;19.890;2022-12-10T14:12:50;81.07;;;30.03;;
19691;SDS011;42748;50.016;19.890;2022-12-10T14:15:18;84.27;;;29.17;;
19691;SDS011;42748;50.016;19.890;2022-12-10T14:17:49;87.73;;;29.57;;
19691;SDS011;42748;50.016;19.890;2022-12-10T14:20:26;79.37;;;28.77;;
19691;SDS011;42748;50.016;19.890;2022-12-10T14:23:04;72.80;;;28.53;;
19691;SDS011;42748;50.016;19.890;2022-12-10T14:26:11;77.17;;;29.00;;
19691;SDS011;42748;50.016;19.890;2022-12-10T14:28:59;76.70;;;27.87;;
19691;SDS011;42748;50.016;19.890;2022-12-10T14:31:36;79.77;;;28.97;;
19691;SDS011;42748;50.016;19.890;2022-12-10T14:34:07;79.87;;;29.07;;
19691;SDS011;42748;50.016;19.890;2022-12-10T14:36:37;77.63;;;28.07;;
19691;SDS011;42748;50.016;19.890;2022-12-10T14:39:14;72.47;;;28.23;;
19691;SDS011;42748;50.016;19.890;2022-12-10T14:41:43;78.47;;;29.10;;
19691;SDS011;42748;50.016;19.890;2022-12-10T14:44:14;82.97;;;29.57;;
19691;SDS011;42748;50.016;19.890;2022-12-10T14:46:43;85.70;;;29.70;;
19691;SDS011;42748;50.016;19.890;2022-12-10T14:49:25;77.67;;;28.97;;
19691;SDS011;42748;50.016;19.890;2022-12-10T14:51:54;84.13;;;29.67;;
19691;SDS011;42748;50.016;19.890;2022-12-10T14:54:30;82.67;;;29.70;;
19691;SDS011;42748;50.016;19.890;2022-12-10T14:57:01;90.27;;;30.17;;
19691;SDS011;42748;50.016;19.890;2022-12-10T14:59:45;86.80;;;29.30;;
19691;SDS011;42748;50.016;19.890;2022-12-10T15:02:34;76.50;;;27.50;;
19691;SDS011;42748;50.016;19.890;2022-12-10T15:05:12;80.63;;;28.03;;
19691;SDS011;42748;50.016;19.890;2022-12-10T15:07:53;76.40;;;26.63;;
19691;SDS011;42748;50.016;19.890;2022-12-10T15:13:00;76.63;;;27.53;;
19691;SDS011;42748;50.016;19.890;2022-12-10T15:23:25;79.90;;;28.37;;
19691;SDS011;42748;50.016;19.890;2022-12-10T15:28:52;84.03;;;28.53;;
19691;SDS011;42748;50.016;19.890;2022-12-10T15:31:47;84.27;;;27.63;;
19691;SDS011;42748;50.016;19.890;2022-12-10T15:34:15;86.40;;;28.43;;
19691;SDS011;42748;50.016;19.890;2022-12-10T15:36:54;75.53;;;27.03;;
19691;SDS011;42748;50.016;19.890;2022-12-10T15:39:30;88.53;;;28.23;;
19691;SDS011;42748;50.016;19.890;2022-12-10T15:42:24;92.33;;;30.00;;
19691;SDS011;42748;50.016;19.890;2022-12-10T15:44:58;81.90;;;26.67;;
19691;SDS011;42748;50.016;19.890;2022-12-10T15:47:31;79.57;;;25.70;;
19691;SDS011;42748;50.016;19.890;2022-12-10T15:49:59;81.57;;;27.53;;
19691;SDS011;42748;50.016;19.890;2022-12-10T15:52:27;81.07;;;27.63;;
19691;SDS011;42748;50.016;19.890;2022-12-10T15:54:57;82.87;;;27.27;;
19691;SDS011;42748;50.016;19.890;2022-12-10T15:57:28;84.03;;;27.40;;
19691;SDS011;42748;50.016;19.890;2022-12-10T16:00:03;80.00;;;26.43;;
19691;SDS011;42748;50.016;19.890;2022-12-10T16:02:47;89.27;;;27.47;;
19691;SDS011;42748;50.016;19.890;2022-12-10T16:05:28;96.17;;;28.83;;
19691;SDS011;42748;50.016;19.890;2022-12-10T16:08:05;90.43;;;28.07;;
19691;SDS011;42748;50.016;19.890;2022-12-10T16:10:39;83.73;;;28.17;;
19691;SDS011;42748;50.016;19.890;2022-12-10T16:13:06;84.60;;;27.43;;
19691;SDS011;42748;50.016;19.890;2022-12-10T16:15:48;77.77;;;26.67;;
19691;SDS011;42748;50.016;19.890;2022-12-10T16:18:19;83.47;;;28.20;;
19691;SDS011;42748;50.016;19.890;2022-12-10T16:20:46;80.77;;;28.07;;
19691;SDS011;42748;50.016;19.890;2022-12-10T16:23:13;80.67;;;27.73;;
19691;SDS011;42748;50.016;19.890;2022-12-10T16:25:41;82.90;;;27.27;;
19691;SDS011;42748;50.016;19.890;2022-12-10T16:28:11;104.10;;;30.60;;
19691;SDS011;42748;50.016;19.890;2022-12-10T16:30:45;107.13;;;31.20;;
19691;SDS011;42748;50.016;19.890;2022-12-10T16:33:16;108.40;;;30.30;;
19691;SDS011;42748;50.016;19.890;2022-12-10T16:35:47;111.40;;;31.33;;
19691;SDS011;42748;50.016;19.890;2022-12-10T16:38:16;101.53;;;29.97;;
19691;SDS011;42748;50.016;19.890;2022-12-10T16:40:43;117.07;;;32.60;;
19691;SDS011;42748;50.016;19.890;2022-12-10T16:43:14;116.73;;;33.00;;
19691;SDS011;42748;50.016;19.890;2022-12-10T16:45:43;114.83;;;32.73;;
19691;SDS011;42748;50.016;19.890;2022-12-10T16:48:10;102.57;;;31.00;;
19691;SDS011;42748;50.016;19.890;2022-12-10T16:50:37;96.10;;;29.33;;
19691;SDS011;42748;50.016;19.890;2022-12-10T16:53:19;104.70;;;30.37;;
19691;SDS011;42748;50.016;19.890;2022-12-10T16:55:49;115.73;;;33.63;;
19691;SDS011;42748;50.016;19.890;2022-12-10T16:58:17;109.10;;;31.97;;
19691;SDS011;42748;50.016;19.890;2022-12-10T17:00:45;105.33;;;30.83;;